createdAt,value
2019-02-02T00:06:42.096Z,9.3
2019-02-02T00:16:41.304Z,9.1
2019-02-02T00:26:40.511Z,9.1
2019-02-02T00:36:39.719Z,9.1
2019-02-02T00:46:38.937Z,9.2
2019-02-02T00:56:38.137Z,9.3
2019-02-02T01:06:37.346Z,9.1
2019-02-02T01:16:36.551Z,9
2019-02-02T01:26:35.763Z,9.1
2019-02-02T01:36:34.974Z,9.1
2019-02-02T01:46:34.174Z,9.1
2019-02-02T01:56:33.383Z,9.2
2019-02-02T02:06:32.590Z,9.3
2019-02-02T02:16:31.799Z,9.3
2019-02-02T02:26:31.005Z,9.3
2019-02-02T02:36:30.215Z,9.3
2019-02-02T02:46:29.423Z,9.2
2019-02-02T02:56:28.627Z,9.2
2019-02-02T03:06:27.838Z,9.2
2019-02-02T03:16:27.044Z,9
2019-02-02T03:26:26.250Z,9
2019-02-02T03:36:25.457Z,8.9
2019-02-02T03:46:24.674Z,8.9
2019-02-02T03:56:23.875Z,8.9
2019-02-02T04:06:23.082Z,8.9
2019-02-02T04:16:22.284Z,8.8
2019-02-02T04:26:21.491Z,8.8
2019-02-02T04:36:20.697Z,8.8
2019-02-02T04:46:19.904Z,8.5
2019-02-02T04:56:19.110Z,8.3
2019-02-02T05:06:18.316Z,8.3
2019-02-02T05:16:17.526Z,8.4
2019-02-02T05:26:16.728Z,8.4
2019-02-02T05:36:15.934Z,8.4
2019-02-02T05:46:15.140Z,8.4
2019-02-02T05:56:14.355Z,8.3
2019-02-02T06:06:13.552Z,8.4
2019-02-02T06:16:12.770Z,8.6
2019-02-02T06:26:11.967Z,7.3
2019-02-02T06:36:11.186Z,6.7
2019-02-02T06:46:10.388Z,6.7
2019-02-02T06:56:09.600Z,6.7
2019-02-02T07:06:08.809Z,6.8
2019-02-02T07:16:08.019Z,7
2019-02-02T07:26:07.230Z,7.5
2019-02-02T07:36:06.438Z,9.2
2019-02-02T07:46:14.689Z,8.8
2019-02-02T07:56:04.855Z,8.8
2019-02-02T08:06:04.067Z,8.8
2019-02-02T08:16:03.277Z,8.6
2019-02-02T08:26:02.479Z,8.7
2019-02-02T08:36:03.968Z,8.6
2019-02-02T08:46:00.898Z,8.8
2019-02-02T08:56:00.112Z,8.8
2019-02-02T09:05:59.322Z,8.6
2019-02-02T09:15:58.584Z,8.8
2019-02-02T09:25:57.756Z,9.2
2019-02-02T09:35:56.957Z,9.4
2019-02-02T09:45:56.167Z,9.9
2019-02-02T09:55:55.375Z,10.6
2019-02-02T10:05:54.590Z,10.9
2019-02-02T10:15:53.797Z,11.3
2019-02-02T10:25:53.004Z,12.1
2019-02-02T10:35:52.213Z,13.6
2019-02-02T10:45:51.426Z,14.3
2019-02-02T10:55:50.632Z,14.4
2019-02-02T11:05:49.841Z,13.8
2019-02-02T11:15:49.054Z,13.1
2019-02-02T11:25:48.267Z,12.8
2019-02-02T11:35:47.479Z,13
2019-02-02T11:45:46.693Z,13.1
2019-02-02T11:55:45.912Z,12.8
2019-02-02T12:05:45.130Z,12.3
2019-02-02T12:15:44.345Z,11.9
2019-02-02T12:25:43.559Z,11.7
2019-02-02T12:35:42.775Z,11.6
2019-02-02T12:45:41.992Z,11.8
2019-02-02T12:55:41.195Z,11.9
2019-02-02T13:05:40.405Z,12.1
2019-02-02T13:15:39.618Z,11.9
2019-02-02T13:25:38.834Z,12
2019-02-02T13:35:38.049Z,12.1
2019-02-02T13:45:37.262Z,12.1
2019-02-02T13:55:36.475Z,12.1
2019-02-02T14:05:35.691Z,12
2019-02-02T14:15:34.908Z,11.9
2019-02-02T14:25:34.127Z,11.8
2019-02-02T14:35:33.391Z,11.6
2019-02-02T14:45:32.556Z,11.6
2019-02-02T14:55:31.771Z,11.5
2019-02-02T15:05:42.079Z,11.4
2019-02-02T15:15:30.220Z,11.3
2019-02-02T15:25:29.409Z,11.1
2019-02-02T15:35:28.671Z,10.8
2019-02-02T15:45:27.833Z,10.6
2019-02-02T15:55:27.045Z,10.3
2019-02-02T16:05:26.257Z,10
2019-02-02T16:15:25.467Z,9.9
2019-02-02T16:25:24.678Z,9.8
2019-02-02T16:35:23.905Z,9.6
2019-02-02T16:45:23.103Z,9.5
2019-02-02T16:55:22.314Z,9.8
2019-02-02T17:05:21.542Z,10.3
2019-02-02T17:15:20.850Z,10.4
2019-02-02T17:25:22.352Z,10.5
2019-02-02T17:35:19.169Z,10.6
2019-02-02T17:45:18.389Z,10.6
2019-02-02T17:55:17.613Z,10.6
2019-02-02T18:05:16.857Z,10.6
2019-02-02T18:15:16.042Z,10.6
2019-02-02T18:25:15.257Z,10.4
2019-02-02T18:35:14.487Z,10.3
2019-02-02T18:45:13.694Z,10.3
2019-02-02T18:55:12.913Z,10.2
2019-02-02T19:05:12.134Z,10.1
2019-02-02T19:15:11.352Z,10.1
2019-02-02T19:25:10.575Z,10.1
2019-02-02T19:35:15.836Z,10
2019-02-02T19:45:09.014Z,9.9
2019-02-02T19:55:14.517Z,9.9
2019-02-02T20:05:09.296Z,9.8
2019-02-02T20:15:06.662Z,9.8
2019-02-02T20:25:05.875Z,9.8
2019-02-02T20:35:05.090Z,9.8
2019-02-02T20:45:04.308Z,9.9
2019-02-02T20:55:03.527Z,9.9
2019-02-02T21:05:02.729Z,9.9
2019-02-02T21:15:01.941Z,9.9
2019-02-02T21:25:01.153Z,9.9
2019-02-02T21:35:00.373Z,9.9
2019-02-02T21:44:59.584Z,9.8
2019-02-02T21:54:58.788Z,9.8
2019-02-02T22:04:58.000Z,9.9
2019-02-02T22:14:57.230Z,9.9
2019-02-02T22:24:56.424Z,9.9
2019-02-02T22:34:55.632Z,9.8
2019-02-02T22:44:54.842Z,9.8
2019-02-02T22:54:54.054Z,9.6
2019-02-02T23:04:53.264Z,9.6
2019-02-02T23:14:52.473Z,9.4
2019-02-02T23:24:51.733Z,9.3
2019-02-02T23:34:50.893Z,9.4
2019-02-02T23:44:50.104Z,9.5
2019-02-02T23:54:49.315Z,9.6
